createdAt,value
2022-12-12T00:00:59.987Z,83.12
2022-12-12T00:02:06.566Z,83.09
2022-12-12T00:03:09.297Z,83.13
2022-12-12T00:04:11.936Z,83.08
2022-12-12T00:05:18.676Z,82.58
2022-12-12T00:06:21.884Z,82.21
2022-12-12T00:07:24.063Z,82.09
2022-12-12T00:08:26.439Z,82.13
2022-12-12T00:09:28.917Z,82.31
2022-12-12T00:10:31.202Z,82.26
2022-12-12T00:11:34.305Z,82.16
2022-12-12T00:12:36.967Z,81.84
2022-12-12T00:13:39.668Z,82.19
2022-12-12T00:14:42.249Z,82.11
2022-12-12T00:15:44.463Z,82.33
2022-12-12T00:16:46.639Z,82.26
2022-12-12T00:17:49.279Z,82.52
2022-12-12T00:18:52.488Z,82.62
2022-12-12T00:19:54.803Z,82.76
2022-12-12T00:20:57.314Z,82.90
2022-12-12T00:21:59.508Z,82.83
2022-12-12T00:23:01.932Z,83.04
2022-12-12T00:24:04.711Z,83.18
2022-12-12T00:25:07.167Z,83.24
2022-12-12T00:26:26.495Z,82.92
2022-12-12T00:27:31.925Z,83.26
2022-12-12T00:28:34.390Z,83.18
2022-12-12T00:29:36.946Z,83.24
2022-12-12T00:30:39.143Z,82.88
2022-12-12T00:31:41.455Z,83.36
2022-12-12T00:32:44.979Z,83.26
2022-12-12T00:33:48.933Z,82.96
2022-12-12T00:34:51.496Z,83.31
2022-12-12T00:35:55.036Z,83.06
2022-12-12T00:36:57.184Z,82.99
2022-12-12T00:37:59.619Z,83.08
2022-12-12T00:39:01.792Z,82.89
2022-12-12T00:40:05.311Z,83.05
2022-12-12T00:41:07.602Z,82.78
2022-12-12T00:42:09.795Z,82.81
2022-12-12T00:43:12.340Z,82.28
2022-12-12T00:44:14.686Z,82.21
2022-12-12T00:45:17.069Z,82.10
2022-12-12T00:46:22.147Z,82.26
2022-12-12T00:47:24.331Z,82.10
2022-12-12T00:48:26.922Z,82.67
2022-12-12T00:49:29.654Z,82.58
2022-12-12T00:50:33.620Z,83.11
2022-12-12T00:51:36.374Z,82.88
2022-12-12T00:52:38.767Z,83.04
2022-12-12T00:53:41.001Z,83.01
2022-12-12T00:54:43.568Z,83.01
2022-12-12T00:55:45.992Z,83.73
2022-12-12T00:56:48.165Z,83.98
2022-12-12T00:57:50.923Z,84.36
2022-12-12T00:58:53.307Z,84.90
2022-12-12T00:59:55.765Z,84.77
2022-12-12T01:01:06.174Z,85.01
2022-12-12T01:02:08.516Z,85.23
2022-12-12T01:03:10.717Z,85.03
2022-12-12T01:04:12.945Z,85.28
2022-12-12T01:05:16.485Z,85.23
2022-12-12T01:06:18.662Z,85.28
2022-12-12T01:07:20.807Z,84.82
2022-12-12T01:08:23.187Z,84.56
2022-12-12T01:09:25.399Z,84.01
2022-12-12T01:10:27.786Z,83.80
2022-12-12T01:11:30.420Z,83.73
2022-12-12T01:12:32.657Z,83.55
2022-12-12T01:13:35.772Z,83.70
2022-12-12T01:14:37.949Z,83.69
2022-12-12T01:15:40.126Z,83.62
2022-12-12T01:16:42.313Z,83.71
2022-12-12T01:17:44.572Z,83.90
2022-12-12T01:18:47.203Z,83.33
2022-12-12T01:19:49.623Z,83.57
2022-12-12T01:20:52.763Z,83.27
2022-12-12T01:21:54.948Z,83.81
2022-12-12T01:22:57.150Z,83.94
2022-12-12T01:24:08.519Z,84.22
2022-12-12T01:25:13.192Z,84.36
2022-12-12T01:26:20.031Z,84.17
2022-12-12T01:27:22.646Z,83.82
2022-12-12T01:28:24.810Z,84.00
2022-12-12T01:29:27.253Z,84.08
2022-12-12T01:30:30.078Z,83.67
2022-12-12T01:31:32.479Z,83.48
2022-12-12T01:32:34.878Z,83.41
2022-12-12T01:33:37.369Z,83.51
2022-12-12T01:34:39.533Z,83.43
2022-12-12T01:35:42.063Z,83.47
2022-12-12T01:36:44.378Z,83.77
2022-12-12T01:37:46.964Z,83.30
2022-12-12T01:38:51.690Z,83.08
2022-12-12T01:39:53.864Z,83.30
2022-12-12T01:40:56.275Z,83.38
2022-12-12T01:41:58.439Z,83.64
2022-12-12T01:43:01.281Z,83.80
2022-12-12T01:44:24.789Z,83.99
2022-12-12T01:45:58.452Z,83.42
2022-12-12T01:47:01.219Z,83.01
2022-12-12T01:48:05.508Z,83.37
2022-12-12T01:49:23.317Z,83.50
2022-12-12T01:50:25.646Z,83.79
2022-12-12T01:51:29.563Z,84.01
2022-12-12T01:52:44.114Z,84.38
2022-12-12T01:53:47.870Z,84.18
2022-12-12T01:54:56.852Z,84.24
2022-12-12T01:56:06.237Z,83.82
2022-12-12T01:57:18.222Z,84.20
2022-12-12T01:58:20.573Z,83.80
2022-12-12T01:59:25.723Z,83.66
2022-12-12T02:00:28.166Z,83.58
2022-12-12T02:01:31.689Z,83.41
2022-12-12T02:02:35.778Z,83.65
2022-12-12T02:03:39.465Z,83.36
2022-12-12T02:04:42.550Z,83.47
2022-12-12T02:05:59.327Z,83.11
2022-12-12T02:07:01.979Z,83.27
2022-12-12T02:08:05.361Z,83.18
2022-12-12T02:09:12.239Z,82.64
2022-12-12T02:10:14.754Z,82.60
2022-12-12T02:11:17.182Z,82.30
2022-12-12T02:12:19.526Z,82.48
2022-12-12T02:13:28.747Z,82.85
2022-12-12T02:14:40.157Z,82.97
2022-12-12T02:15:57.543Z,83.41
2022-12-12T02:17:06.243Z,83.24
2022-12-12T02:18:19.477Z,83.49
2022-12-12T02:19:39.759Z,83.75
2022-12-12T02:21:02.085Z,83.83
2022-12-12T02:22:14.230Z,83.70
2022-12-12T02:24:14.012Z,83.66
2022-12-12T02:25:40.332Z,83.96
2022-12-12T02:26:54.498Z,83.62
2022-12-12T02:28:22.494Z,83.91
2022-12-12T02:29:34.142Z,84.04
2022-12-12T02:31:07.555Z,84.30
2022-12-12T02:32:24.827Z,84.37
2022-12-12T02:33:38.030Z,84.57
2022-12-12T02:35:14.820Z,84.75
2022-12-12T02:36:51.188Z,84.58
2022-12-12T02:38:17.768Z,84.37
2022-12-12T02:39:33.951Z,84.58
2022-12-12T02:40:45.077Z,84.24
2022-12-12T02:41:56.200Z,83.83
2022-12-12T02:43:13.169Z,84.07
2022-12-12T02:44:27.861Z,83.81
2022-12-12T02:46:02.770Z,83.64
2022-12-12T02:47:19.577Z,83.96
2022-12-12T02:48:40.858Z,84.01
2022-12-12T02:49:53.352Z,84.08
2022-12-12T02:50:58.694Z,84.32
2022-12-12T02:52:02.259Z,84.26
2022-12-12T02:53:05.762Z,84.37
2022-12-12T02:54:14.562Z,84.65
2022-12-12T02:55:18.004Z,84.40
2022-12-12T02:56:45.660Z,84.31
2022-12-12T02:57:49.398Z,84.76
2022-12-12T02:58:51.822Z,84.83
2022-12-12T03:00:01.726Z,85.00
2022-12-12T03:01:29.357Z,84.98
2022-12-12T03:03:20.528Z,84.46
2022-12-12T03:04:56.488Z,84.54
2022-12-12T03:06:40.897Z,84.46
2022-12-12T03:08:02.159Z,85.06
2022-12-12T03:09:04.167Z,85.33
2022-12-12T03:10:16.450Z,85.29
2022-12-12T03:11:46.037Z,85.21
2022-12-12T03:13:27.990Z,84.90
2022-12-12T03:14:52.263Z,85.00
2022-12-12T03:16:36.835Z,84.69
2022-12-12T03:17:44.813Z,84.78
2022-12-12T03:18:58.558Z,84.40
2022-12-12T03:20:11.625Z,84.43
2022-12-12T03:21:45.044Z,84.20
2022-12-12T03:22:53.768Z,84.56
2022-12-12T03:24:03.069Z,84.38
2022-12-12T03:25:19.946Z,84.39
2022-12-12T03:26:35.697Z,84.11
2022-12-12T03:27:53.865Z,83.84
2022-12-12T03:29:04.093Z,83.77
2022-12-12T03:30:12.053Z,84.34
2022-12-12T03:31:18.106Z,84.10
2022-12-12T03:32:26.892Z,84.36
2022-12-12T03:34:04.112Z,84.32
2022-12-12T03:35:23.114Z,84.65
2022-12-12T03:36:33.092Z,84.03
2022-12-12T03:37:40.860Z,84.23
2022-12-12T03:38:56.905Z,84.31
2022-12-12T03:40:09.004Z,84.63
2022-12-12T03:41:17.796Z,84.29
2022-12-12T03:42:54.845Z,84.57
2022-12-12T03:44:31.033Z,84.36
2022-12-12T03:45:59.193Z,84.74
2022-12-12T03:47:11.767Z,85.08
2022-12-12T03:48:22.088Z,85.04
2022-12-12T03:49:35.754Z,84.77
2022-12-12T03:51:04.728Z,84.86
2022-12-12T03:52:39.554Z,84.84
2022-12-12T03:53:57.312Z,85.20
2022-12-12T03:55:04.993Z,84.90
2022-12-12T03:56:17.848Z,84.85
2022-12-12T03:57:26.610Z,85.17
2022-12-12T03:58:35.552Z,85.10
2022-12-12T03:59:53.368Z,85.18
2022-12-12T04:00:58.508Z,84.68
2022-12-12T04:02:10.961Z,84.65
2022-12-12T04:03:40.078Z,84.49
2022-12-12T04:04:58.851Z,84.67
2022-12-12T04:06:27.075Z,84.82
2022-12-12T04:07:51.681Z,84.97
2022-12-12T04:09:20.809Z,84.97
2022-12-12T04:10:44.529Z,85.12
2022-12-12T04:12:17.627Z,85.55
2022-12-12T04:13:43.113Z,85.32
2022-12-12T04:15:00.240Z,85.10
2022-12-12T04:16:05.632Z,84.80
2022-12-12T04:17:15.287Z,84.67
2022-12-12T04:18:40.779Z,84.73
2022-12-12T04:20:18.256Z,84.77
2022-12-12T04:21:59.726Z,84.39
2022-12-12T04:23:27.825Z,84.48
2022-12-12T04:24:55.823Z,84.77
2022-12-12T04:26:20.984Z,85.07
2022-12-12T04:27:30.653Z,85.15
2022-12-12T04:28:34.724Z,84.84
2022-12-12T04:29:39.802Z,84.80
2022-12-12T04:30:42.279Z,84.38
2022-12-12T04:32:23.123Z,83.87
2022-12-12T04:33:29.388Z,83.87
2022-12-12T04:34:46.227Z,84.10
2022-12-12T04:35:51.153Z,84.12
2022-12-12T04:36:53.872Z,83.88
2022-12-12T04:38:04.307Z,83.89
2022-12-12T04:39:09.662Z,84.03
2022-12-12T04:40:17.156Z,84.19
2022-12-12T04:41:22.028Z,84.47
2022-12-12T04:42:28.470Z,84.93
2022-12-12T04:43:34.590Z,84.99
2022-12-12T04:44:40.806Z,85.22
2022-12-12T04:45:58.329Z,85.20
2022-12-12T04:47:03.131Z,85.44
2022-12-12T04:48:08.548Z,85.74
2022-12-12T04:49:18.744Z,85.91
2022-12-12T04:50:23.957Z,85.45
2022-12-12T04:51:33.670Z,85.46
2022-12-12T04:52:37.185Z,85.16
2022-12-12T04:53:45.229Z,84.84
2022-12-12T04:54:49.850Z,84.84
2022-12-12T04:55:56.991Z,84.63
2022-12-12T04:57:02.119Z,84.57
2022-12-12T04:58:07.203Z,84.37
2022-12-12T04:59:09.463Z,84.61
2022-12-12T05:00:13.607Z,84.60
2022-12-12T05:01:23.503Z,84.29
2022-12-12T05:02:28.628Z,84.72
2022-12-12T05:03:57.186Z,84.87
2022-12-12T05:05:06.124Z,84.75
2022-12-12T05:06:15.331Z,84.90
2022-12-12T05:07:27.680Z,84.91
2022-12-12T05:08:33.859Z,84.85
2022-12-12T05:09:37.061Z,85.31
2022-12-12T05:10:44.345Z,84.88
2022-12-12T05:11:48.065Z,85.12
2022-12-12T05:12:53.825Z,85.26
2022-12-12T05:13:56.174Z,84.83
2022-12-12T05:14:58.387Z,85.07
2022-12-12T05:16:03.361Z,84.60
2022-12-12T05:17:11.881Z,84.58
2022-12-12T05:18:14.134Z,84.61
2022-12-12T05:19:16.473Z,84.56
2022-12-12T05:20:18.709Z,84.20
2022-12-12T05:21:21.752Z,83.95
2022-12-12T05:22:23.908Z,84.00
2022-12-12T05:23:28.984Z,83.99
2022-12-12T05:24:35.399Z,84.36
2022-12-12T05:25:39.029Z,84.47
2022-12-12T05:26:41.760Z,84.39
2022-12-12T05:27:43.918Z,84.57
2022-12-12T05:28:46.066Z,84.13
2022-12-12T05:29:48.420Z,84.48
2022-12-12T05:30:50.603Z,84.96
2022-12-12T05:31:53.167Z,84.80
2022-12-12T05:32:55.356Z,85.14
2022-12-12T05:33:57.891Z,84.90
2022-12-12T05:35:00.033Z,85.13
2022-12-12T05:36:02.465Z,84.97
2022-12-12T05:37:04.688Z,84.84
2022-12-12T05:38:06.888Z,84.95
2022-12-12T05:39:09.251Z,85.05
2022-12-12T05:40:13.427Z,84.54
2022-12-12T05:41:16.069Z,84.70
2022-12-12T05:42:18.476Z,84.71
2022-12-12T05:43:20.632Z,84.72
2022-12-12T05:44:22.984Z,84.46
2022-12-12T05:45:25.343Z,84.62
2022-12-12T05:46:27.583Z,84.68
2022-12-12T05:47:29.975Z,84.83
2022-12-12T05:48:32.387Z,84.92
2022-12-12T05:49:34.570Z,84.80
2022-12-12T05:50:36.920Z,85.12
2022-12-12T05:51:39.099Z,84.98
2022-12-12T05:52:41.474Z,85.29
2022-12-12T05:53:44.678Z,85.20
2022-12-12T05:54:46.939Z,85.12
2022-12-12T05:55:53.680Z,85.10
2022-12-12T05:56:56.028Z,85.03
2022-12-12T05:57:58.808Z,84.72
2022-12-12T05:59:00.991Z,84.46
2022-12-12T06:00:05.043Z,84.33
2022-12-12T06:01:08.584Z,84.51
2022-12-12T06:02:11.177Z,84.13
2022-12-12T06:03:13.711Z,84.32
2022-12-12T06:04:15.952Z,84.66
2022-12-12T06:05:18.419Z,84.75
2022-12-12T06:06:20.674Z,84.62
2022-12-12T06:07:23.044Z,84.22
2022-12-12T06:08:25.527Z,84.27
2022-12-12T06:09:27.922Z,84.30
2022-12-12T06:10:30.489Z,84.04
2022-12-12T06:11:32.837Z,84.40
2022-12-12T06:12:35.251Z,84.53
2022-12-12T06:13:37.865Z,84.04
2022-12-12T06:14:40.118Z,83.90
2022-12-12T06:15:42.804Z,83.87
2022-12-12T06:16:45.207Z,84.10
2022-12-12T06:17:47.874Z,84.17
2022-12-12T06:18:51.876Z,84.63
2022-12-12T06:19:54.042Z,85.15
2022-12-12T06:21:05.347Z,84.88
2022-12-12T06:22:07.580Z,84.80
2022-12-12T06:23:10.234Z,84.86
2022-12-12T06:24:12.658Z,84.79
2022-12-12T06:25:15.301Z,84.59
2022-12-12T06:26:19.189Z,84.87
2022-12-12T06:27:21.338Z,84.90
2022-12-12T06:28:23.907Z,85.16
2022-12-12T06:29:26.081Z,84.77
2022-12-12T06:30:28.287Z,84.80
2022-12-12T06:31:31.052Z,84.79
2022-12-12T06:32:33.335Z,85.12
2022-12-12T06:33:35.923Z,85.00
2022-12-12T06:34:39.223Z,85.15
2022-12-12T06:35:41.571Z,85.12
2022-12-12T06:36:43.862Z,85.32
2022-12-12T06:37:48.365Z,85.50
2022-12-12T06:38:51.917Z,85.47
2022-12-12T06:39:54.076Z,85.85
2022-12-12T06:40:56.718Z,86.39
2022-12-12T06:41:59.105Z,87.36
2022-12-12T06:43:01.442Z,88.01
2022-12-12T06:44:04.613Z,86.54
2022-12-12T06:45:07.319Z,86.15
2022-12-12T06:46:15.129Z,85.18
2022-12-12T06:47:17.438Z,85.71
2022-12-12T06:48:19.780Z,85.47
2022-12-12T06:49:22.311Z,85.16
2022-12-12T06:50:24.453Z,85.12
2022-12-12T06:51:29.515Z,84.97
2022-12-12T06:52:31.684Z,84.69
2022-12-12T06:53:34.549Z,84.80
2022-12-12T06:54:36.745Z,85.34
2022-12-12T06:55:43.495Z,85.32
2022-12-12T06:56:48.514Z,85.19
2022-12-12T06:57:51.209Z,85.20
2022-12-12T06:58:54.944Z,85.39
2022-12-12T06:59:57.212Z,85.78
2022-12-12T07:00:59.657Z,85.36
2022-12-12T07:02:02.186Z,85.37
2022-12-12T07:03:04.600Z,85.86
2022-12-12T07:04:07.208Z,85.73
2022-12-12T07:05:09.512Z,86.22
2022-12-12T07:06:12.097Z,86.19
2022-12-12T07:07:14.306Z,86.20
2022-12-12T07:08:16.712Z,86.47
2022-12-12T07:09:19.709Z,86.22
2022-12-12T07:10:21.942Z,86.38
2022-12-12T07:11:26.365Z,86.78
2022-12-12T07:12:28.572Z,86.73
2022-12-12T07:13:31.186Z,86.55
2022-12-12T07:14:33.541Z,86.43
2022-12-12T07:15:41.363Z,86.68
2022-12-12T07:16:43.586Z,86.54
2022-12-12T07:17:45.776Z,86.56
2022-12-12T07:18:48.536Z,86.82
2022-12-12T07:19:50.687Z,86.45
2022-12-12T07:20:52.941Z,86.40
2022-12-12T07:21:55.114Z,86.91
2022-12-12T07:22:57.315Z,86.91
2022-12-12T07:23:59.775Z,87.14
2022-12-12T07:25:02.448Z,87.22
2022-12-12T07:26:06.587Z,87.39
2022-12-12T07:27:08.781Z,87.12
2022-12-12T07:28:13.368Z,87.35
2022-12-12T07:29:15.818Z,87.42
2022-12-12T07:30:18.130Z,87.82
2022-12-12T07:31:23.021Z,87.59
2022-12-12T07:32:25.269Z,88.05
2022-12-12T07:33:39.591Z,87.63
2022-12-12T07:34:45.332Z,87.84
2022-12-12T07:35:47.639Z,87.82
2022-12-12T07:36:50.064Z,87.36
2022-12-12T07:37:52.672Z,87.66
2022-12-12T07:38:55.057Z,87.78
2022-12-12T07:39:57.281Z,87.48
2022-12-12T07:41:10.149Z,87.74
2022-12-12T07:42:12.413Z,87.51
2022-12-12T07:43:14.772Z,87.78
2022-12-12T07:44:17.495Z,88.12
2022-12-12T07:45:22.427Z,88.18
2022-12-12T07:46:25.706Z,88.12
2022-12-12T07:47:28.096Z,88.29
2022-12-12T07:48:30.357Z,88.35
2022-12-12T07:49:32.815Z,88.32
2022-12-12T07:50:35.127Z,88.11
2022-12-12T07:51:41.857Z,88.66
2022-12-12T07:52:46.744Z,88.68
2022-12-12T07:53:48.961Z,88.25
2022-12-12T07:54:51.331Z,88.41
2022-12-12T07:55:53.724Z,88.52
2022-12-12T07:56:55.914Z,88.69
2022-12-12T07:57:58.455Z,88.35
2022-12-12T07:59:00.616Z,88.32
2022-12-12T08:00:05.225Z,87.78
2022-12-12T08:01:15.815Z,87.80
2022-12-12T08:02:18.122Z,87.85
2022-12-12T08:03:20.346Z,87.51
2022-12-12T08:04:22.752Z,87.50
2022-12-12T08:05:25.164Z,87.56
2022-12-12T08:06:27.386Z,87.35
2022-12-12T08:07:29.793Z,87.30
2022-12-12T08:08:35.088Z,87.65
2022-12-12T08:09:37.944Z,87.33
2022-12-12T08:10:40.869Z,87.13
2022-12-12T08:11:46.289Z,87.32
2022-12-12T08:12:49.571Z,87.24
2022-12-12T08:13:52.291Z,87.13
2022-12-12T08:14:54.634Z,87.07
2022-12-12T08:15:56.845Z,87.16
2022-12-12T08:16:59.562Z,87.39
2022-12-12T08:18:02.126Z,87.43
2022-12-12T08:19:05.177Z,87.00
2022-12-12T08:20:08.087Z,87.30
2022-12-12T08:21:12.152Z,87.12
2022-12-12T08:22:14.375Z,87.15
2022-12-12T08:23:16.561Z,87.30
2022-12-12T08:24:18.744Z,87.47
2022-12-12T08:25:21.119Z,87.00
2022-12-12T08:26:23.499Z,86.70
2022-12-12T08:27:25.685Z,86.66
2022-12-12T08:28:27.979Z,86.89
2022-12-12T08:29:31.034Z,86.55
2022-12-12T08:30:33.278Z,86.50
2022-12-12T08:31:36.203Z,86.82
2022-12-12T08:32:38.447Z,86.55
2022-12-12T08:33:42.690Z,86.22
2022-12-12T08:34:45.056Z,86.36
2022-12-12T08:35:47.314Z,86.38
2022-12-12T08:36:50.488Z,86.40
2022-12-12T08:37:52.844Z,86.51
2022-12-12T08:38:55.023Z,86.72
2022-12-12T08:39:57.432Z,86.61
2022-12-12T08:41:02.860Z,86.87
2022-12-12T08:42:05.122Z,86.89
2022-12-12T08:43:09.022Z,86.54
2022-12-12T08:44:12.558Z,86.21
2022-12-12T08:45:15.304Z,86.44
2022-12-12T08:46:19.683Z,86.27
2022-12-12T08:47:22.034Z,86.26
2022-12-12T08:48:24.266Z,86.32
2022-12-12T08:49:26.406Z,86.32
2022-12-12T08:50:28.788Z,87.06
2022-12-12T08:51:31.284Z,87.19
2022-12-12T08:52:33.461Z,87.47
2022-12-12T08:53:36.436Z,87.45
2022-12-12T08:54:38.627Z,87.21
2022-12-12T08:55:41.184Z,86.81
2022-12-12T08:56:43.907Z,86.98
2022-12-12T08:57:46.186Z,87.22
2022-12-12T08:58:49.072Z,87.10
2022-12-12T08:59:51.256Z,86.93
2022-12-12T09:00:53.475Z,87.02
2022-12-12T09:01:55.931Z,86.76
2022-12-12T09:02:58.189Z,87.02
2022-12-12T09:04:00.452Z,86.63
2022-12-12T09:05:02.777Z,86.59
2022-12-12T09:06:06.953Z,86.28
2022-12-12T09:07:09.199Z,86.42
2022-12-12T09:08:13.080Z,86.52
2022-12-12T09:09:15.336Z,85.86
2022-12-12T09:10:17.802Z,86.07
2022-12-12T09:11:20.144Z,86.03
2022-12-12T09:12:22.358Z,85.88
2022-12-12T09:13:25.323Z,85.84
2022-12-12T09:14:28.629Z,86.13
2022-12-12T09:15:33.657Z,85.81
2022-12-12T09:16:36.087Z,85.61
2022-12-12T09:17:38.482Z,85.30
2022-12-12T09:18:48.034Z,85.27
2022-12-12T09:19:50.623Z,85.19
2022-12-12T09:20:55.371Z,84.94
2022-12-12T09:21:57.922Z,84.67
2022-12-12T09:23:00.093Z,85.04
2022-12-12T09:24:02.527Z,84.92
2022-12-12T09:25:05.894Z,84.77
2022-12-12T09:26:09.263Z,84.77
2022-12-12T09:27:14.260Z,84.66
2022-12-12T09:28:19.397Z,84.68
2022-12-12T09:29:21.812Z,84.55
2022-12-12T09:30:24.322Z,84.70
2022-12-12T09:31:26.798Z,84.67
2022-12-12T09:32:29.046Z,84.34
2022-12-12T09:33:31.786Z,84.33
2022-12-12T09:34:34.320Z,84.05
2022-12-12T09:35:36.843Z,83.52
2022-12-12T09:36:42.071Z,83.07
2022-12-12T09:37:44.300Z,83.05
2022-12-12T09:38:46.504Z,82.94
2022-12-12T09:39:51.583Z,82.94
2022-12-12T09:41:08.886Z,83.25
2022-12-12T09:42:25.861Z,82.80
2022-12-12T09:43:54.430Z,83.17
2022-12-12T09:45:00.238Z,83.13
2022-12-12T09:46:03.362Z,83.25
2022-12-12T09:47:12.422Z,83.50
2022-12-12T09:48:35.818Z,84.16
2022-12-12T09:49:46.672Z,84.09
2022-12-12T09:50:49.107Z,83.90
2022-12-12T09:51:52.811Z,83.65
2022-12-12T09:52:58.846Z,83.65
2022-12-12T09:54:01.205Z,83.70
2022-12-12T09:55:26.729Z,83.46
2022-12-12T09:56:51.305Z,83.74
2022-12-12T09:58:22.762Z,83.50
2022-12-12T09:59:57.288Z,83.60
2022-12-12T10:01:05.477Z,83.40
2022-12-12T10:02:22.728Z,83.82
2022-12-12T10:03:41.799Z,83.89
2022-12-12T10:05:17.228Z,83.99
2022-12-12T10:06:36.971Z,83.98
2022-12-12T10:07:42.908Z,84.03
2022-12-12T10:09:03.679Z,84.40
2022-12-12T10:10:13.044Z,84.63
2022-12-12T10:11:44.450Z,84.84
2022-12-12T10:12:47.776Z,84.73
2022-12-12T10:13:49.930Z,84.75
2022-12-12T10:14:58.825Z,84.41
2022-12-12T10:16:10.774Z,84.72
2022-12-12T10:17:39.469Z,84.66
2022-12-12T10:18:48.205Z,85.06
2022-12-12T10:19:57.436Z,85.26
2022-12-12T10:21:02.929Z,85.47
2022-12-12T10:22:15.159Z,85.30
2022-12-12T10:23:35.903Z,85.01
2022-12-12T10:24:58.221Z,84.73
2022-12-12T10:26:10.742Z,84.55
2022-12-12T10:27:14.558Z,84.78
2022-12-12T10:28:20.277Z,84.44
2022-12-12T10:29:26.292Z,84.66
2022-12-12T10:30:34.099Z,84.47
2022-12-12T10:32:01.803Z,84.26
2022-12-12T10:33:10.237Z,84.13
2022-12-12T10:34:15.110Z,83.67
2022-12-12T10:35:41.916Z,83.80
2022-12-12T10:37:12.078Z,84.04
2022-12-12T10:38:14.362Z,84.22
2022-12-12T10:39:34.363Z,84.25
2022-12-12T10:40:51.849Z,84.07
2022-12-12T10:42:13.379Z,84.10
2022-12-12T10:43:23.504Z,83.92
2022-12-12T10:44:45.567Z,83.93
2022-12-12T10:45:59.121Z,83.79
2022-12-12T10:47:10.710Z,83.61
2022-12-12T10:48:17.188Z,83.68
2022-12-12T10:49:23.839Z,83.68
2022-12-12T10:50:35.996Z,83.94
2022-12-12T10:51:38.191Z,84.06
2022-12-12T10:52:40.453Z,83.68
2022-12-12T10:53:42.933Z,83.63
2022-12-12T10:54:48.531Z,83.68
2022-12-12T10:55:55.048Z,83.79
2022-12-12T10:57:08.898Z,84.00
2022-12-12T10:58:11.061Z,84.04
2022-12-12T10:59:23.172Z,83.64
2022-12-12T11:00:40.416Z,83.65
2022-12-12T11:02:08.976Z,83.73
2022-12-12T11:03:18.395Z,83.49
2022-12-12T11:04:22.053Z,83.67
2022-12-12T11:05:29.040Z,84.33
2022-12-12T11:06:43.984Z,83.98
2022-12-12T11:07:48.934Z,84.23
2022-12-12T11:09:01.048Z,84.55
2022-12-12T11:10:05.728Z,84.35
2022-12-12T11:11:19.290Z,84.35
2022-12-12T11:12:21.716Z,84.18
2022-12-12T11:13:24.090Z,83.88
2022-12-12T11:14:49.537Z,83.73
2022-12-12T11:15:51.659Z,83.96
2022-12-12T11:16:53.903Z,83.90
2022-12-12T11:18:02.756Z,83.65
2022-12-12T11:19:18.006Z,83.63
2022-12-12T11:20:20.264Z,83.69
2022-12-12T11:21:22.555Z,83.65
2022-12-12T11:22:29.122Z,83.96
2022-12-12T11:23:32.603Z,84.13
2022-12-12T11:24:35.967Z,84.47
2022-12-12T11:25:38.254Z,84.47
2022-12-12T11:26:46.545Z,84.32
2022-12-12T11:27:49.007Z,84.36
2022-12-12T11:29:01.313Z,84.68
2022-12-12T11:30:48.458Z,85.09
2022-12-12T11:31:50.773Z,85.04
2022-12-12T11:32:55.275Z,84.84
2022-12-12T11:34:04.802Z,85.02
2022-12-12T11:35:22.401Z,84.33
2022-12-12T11:36:41.109Z,84.69
2022-12-12T11:37:50.028Z,84.78
2022-12-12T11:38:55.875Z,84.44
2022-12-12T11:39:58.140Z,84.34
2022-12-12T11:41:06.996Z,84.29
2022-12-12T11:42:15.434Z,84.32
2022-12-12T11:43:37.139Z,84.30
2022-12-12T11:44:40.540Z,83.82
2022-12-12T11:45:42.773Z,83.76
2022-12-12T11:46:45.001Z,83.96
2022-12-12T11:47:48.132Z,83.41
2022-12-12T11:49:02.839Z,83.63
2022-12-12T11:50:19.306Z,83.56
2022-12-12T11:51:40.930Z,83.52
2022-12-12T11:52:43.085Z,83.74
2022-12-12T11:53:45.605Z,83.84
2022-12-12T11:54:48.074Z,83.96
2022-12-12T11:56:26.085Z,83.97
2022-12-12T11:58:07.950Z,83.82
2022-12-12T11:59:48.257Z,83.86
2022-12-12T12:00:56.496Z,83.33
2022-12-12T12:02:07.674Z,83.34
2022-12-12T12:03:12.798Z,83.30
2022-12-12T12:04:41.653Z,82.86
2022-12-12T12:06:00.237Z,83.36
2022-12-12T12:07:44.023Z,83.50
2022-12-12T12:09:13.970Z,83.41
2022-12-12T12:10:45.828Z,83.53
2022-12-12T12:12:20.848Z,83.22
2022-12-12T12:13:26.121Z,82.76
2022-12-12T12:14:43.218Z,82.21
2022-12-12T12:16:12.755Z,82.18
2022-12-12T12:17:27.087Z,82.06
2022-12-12T12:18:48.025Z,81.43
2022-12-12T12:19:50.035Z,81.54
2022-12-12T12:21:01.080Z,81.65
2022-12-12T12:22:31.953Z,81.16
2022-12-12T12:24:12.672Z,81.30
2022-12-12T12:25:34.295Z,81.43
2022-12-12T12:26:45.121Z,81.50
2022-12-12T12:28:04.412Z,81.51
2022-12-12T12:29:06.560Z,80.95
2022-12-12T12:30:27.260Z,80.84
2022-12-12T12:31:53.158Z,80.95
2022-12-12T12:33:24.095Z,80.59
2022-12-12T12:34:38.464Z,80.40
2022-12-12T12:36:20.726Z,79.84
2022-12-12T12:37:37.960Z,79.89
2022-12-12T12:38:50.262Z,79.77
2022-12-12T12:40:24.689Z,79.44
2022-12-12T12:41:49.768Z,79.22
2022-12-12T12:43:20.925Z,79.31
2022-12-12T12:44:26.246Z,79.22
2022-12-12T12:45:40.069Z,78.90
2022-12-12T12:47:02.676Z,78.73
2022-12-12T12:48:21.632Z,78.07
2022-12-12T12:49:32.914Z,78.43
2022-12-12T12:50:40.347Z,78.68
2022-12-12T12:52:11.704Z,79.08
2022-12-12T12:53:41.731Z,78.93
2022-12-12T12:54:49.189Z,78.94
2022-12-12T12:55:59.147Z,78.97
2022-12-12T12:57:10.830Z,78.58
2022-12-12T12:58:24.503Z,78.65
2022-12-12T12:59:36.602Z,78.86
2022-12-12T13:00:39.975Z,79.03
2022-12-12T13:01:46.470Z,79.21
2022-12-12T13:03:00.927Z,79.34
2022-12-12T13:04:16.317Z,78.95
2022-12-12T13:05:30.297Z,78.87
2022-12-12T13:06:36.074Z,78.81
2022-12-12T13:07:50.266Z,78.92
2022-12-12T13:09:24.469Z,78.99
2022-12-12T13:10:31.305Z,78.63
2022-12-12T13:11:39.083Z,78.73
2022-12-12T13:12:55.941Z,78.45
2022-12-12T13:14:12.389Z,78.00
2022-12-12T13:15:29.122Z,78.23
2022-12-12T13:16:33.353Z,78.53
2022-12-12T13:17:51.673Z,78.68
2022-12-12T13:19:13.036Z,78.43
2022-12-12T13:20:21.895Z,78.49
2022-12-12T13:21:43.932Z,78.74
2022-12-12T13:22:53.598Z,78.47
2022-12-12T13:24:18.903Z,78.32
2022-12-12T13:25:32.933Z,78.95
2022-12-12T13:26:59.350Z,79.29
2022-12-12T13:28:11.608Z,79.41
2022-12-12T13:29:34.530Z,79.19
2022-12-12T13:30:48.688Z,79.31
2022-12-12T13:32:12.170Z,79.47
2022-12-12T13:33:43.506Z,79.41
2022-12-12T13:34:51.398Z,79.03
2022-12-12T13:35:57.308Z,79.08
2022-12-12T13:36:59.884Z,79.43
2022-12-12T13:38:03.631Z,79.68
2022-12-12T13:39:09.548Z,79.83
2022-12-12T13:40:41.468Z,79.87
2022-12-12T13:41:59.079Z,79.66
2022-12-12T13:43:09.436Z,79.49
2022-12-12T13:44:35.474Z,79.47
2022-12-12T13:45:46.059Z,79.24
2022-12-12T13:46:50.538Z,79.05
2022-12-12T13:47:55.275Z,79.21
2022-12-12T13:49:06.778Z,79.60
2022-12-12T13:50:09.282Z,79.56
2022-12-12T13:51:33.583Z,79.81
2022-12-12T13:52:41.695Z,79.97
2022-12-12T13:53:43.852Z,80.06
2022-12-12T13:54:47.757Z,79.90
2022-12-12T13:56:32.814Z,79.94
2022-12-12T13:57:35.080Z,79.95
2022-12-12T13:58:37.434Z,79.79
2022-12-12T13:59:58.206Z,80.21
2022-12-12T14:01:40.381Z,80.27
2022-12-12T14:02:46.007Z,80.55
2022-12-12T14:03:48.266Z,80.57
2022-12-12T14:05:10.854Z,80.14
2022-12-12T14:06:19.377Z,80.08
2022-12-12T14:07:25.436Z,79.89
2022-12-12T14:08:35.456Z,80.04
2022-12-12T14:09:48.310Z,80.05
2022-12-12T14:11:08.454Z,80.13
2022-12-12T14:12:30.689Z,79.90
2022-12-12T14:13:43.054Z,80.20
2022-12-12T14:15:21.873Z,80.08
2022-12-12T14:16:27.514Z,80.21
2022-12-12T14:17:36.896Z,80.54
2022-12-12T14:18:49.577Z,80.09
2022-12-12T14:19:54.521Z,80.16
2022-12-12T14:21:02.593Z,80.02
2022-12-12T14:22:04.891Z,80.14
2022-12-12T14:23:28.093Z,79.85
2022-12-12T14:24:33.772Z,79.72
2022-12-12T14:26:41.419Z,79.78
2022-12-12T14:27:49.671Z,79.64
2022-12-12T14:29:16.807Z,79.38
2022-12-12T14:30:25.114Z,79.34
2022-12-12T14:31:34.936Z,79.51
2022-12-12T14:32:51.147Z,79.31
2022-12-12T14:34:02.552Z,78.95
2022-12-12T14:35:16.499Z,78.88
2022-12-12T14:36:53.751Z,79.17
2022-12-12T14:38:13.869Z,79.13
2022-12-12T14:39:39.731Z,79.10
2022-12-12T14:40:47.696Z,78.66
2022-12-12T14:41:51.296Z,78.50
2022-12-12T14:43:19.938Z,78.64
2022-12-12T14:44:37.120Z,78.61
2022-12-12T14:45:53.395Z,78.72
2022-12-12T14:46:59.476Z,78.70
2022-12-12T14:48:15.204Z,78.26
2022-12-12T14:49:18.560Z,78.42
2022-12-12T14:50:24.010Z,77.85
2022-12-12T14:51:30.575Z,77.81
2022-12-12T14:52:32.774Z,77.49
2022-12-12T14:53:38.037Z,77.35